Challenger Kasser — V3UJ3 — position and weather

sailwx.info

Track history (hours):
 
Tides and Currents Weather Stations Pressure Air Temp Water Temp Dewpoint Dewpoint Depression Visibility Wind Speed Wind Dir Waves Ship Positions

Challenger Kasser

Last reported at 2017-Sep-21 07:00 UTC. Time now 2017-Sep-21 07:08 UTC.
Position N 46°29' E 030°52'.

; draft 5.9 m.

Type: Cargo ship. MMSI: 312099000.

Date/timePositionNaut miles runAvg speedWind from/ knotsBaromVisibWave heightAir tempDewpointWater temp
2017-Sep-21 07:00N 46°29' E 030°52'0 0.0
2017-Sep-21 06:30N 46°29' E 030°52'0 0.0
2017-Sep-21 06:00N 46°29' E 030°52'0 0.0
2017-Sep-21 05:30N 46°29' E 030°52'0 0.0
2017-Sep-21 05:00N 46°29' E 030°52'0 0.0
2017-Sep-21 04:30N 46°29' E 030°52'0 0.0
2017-Sep-21 04:00N 46°29' E 030°52'0 0.0
2017-Sep-21 03:27N 46°29' E 030°52'0 0.0
2017-Sep-21 03:00N 46°29' E 030°52'0 0.0
2017-Sep-21 02:30N 46°29' E 030°52'0 0.0
2017-Sep-21 02:00N 46°29' E 030°52'0 0.0
2017-Sep-21 01:30N 46°29' E 030°52'0 0.0
2017-Sep-21 01:00N 46°29' E 030°52'0 0.1
2017-Sep-21 00:30N 46°29' E 030°52'0 0.0
2017-Sep-21 00:00N 46°29' E 030°52'0 0.0
2017-Sep-20 23:30N 46°29' E 030°52'0 0.0
2017-Sep-20 23:00N 46°29' E 030°52'0 0.1
2017-Sep-20 22:27N 46°29' E 030°52'0 0.0
2017-Sep-20 22:00N 46°29' E 030°52'0 0.0
2017-Sep-20 21:30N 46°29' E 030°52'0 0.0
2017-Sep-20 21:00N 46°29' E 030°52'0 0.0
2017-Sep-20 20:30N 46°29' E 030°52'0 0.2
2017-Sep-20 19:57N 46°29' E 030°52'0 0.8
2017-Sep-20 19:30N 46°29' E 030°52'4 7.8
2017-Sep-20 19:00N 46°25' E 030°52'510.2
2017-Sep-20 18:30N 46°20' E 030°54'611.4
2017-Sep-20 18:00N 46°15' E 030°59'612.0
2017-Sep-20 17:30N 46°11' E 031°05'612.2
2017-Sep-20 17:00N 46°06' E 031°09'612.6
2017-Sep-20 16:30N 45°60' E 031°07'3612.3
2017-Sep-20 13:35N 45°25' E 030°51'112.3
2017-Sep-20 13:30N 45°24' E 030°51'1712.3
2017-Sep-20 12:06N 45°08' E 030°44'512.4
2017-Sep-20 11:41N 45°03' E 030°42'212.2
2017-Sep-20 11:30N 45°01' E 030°41'1212.4
2017-Sep-20 10:31N 44°49' E 030°36'1312.3
2017-Sep-20 09:26N 44°36' E 030°31'612.1
2017-Sep-20 08:57N 44°31' E 030°28'512.1
2017-Sep-20 08:29N 44°25' E 030°26'612.3
2017-Sep-20 07:58N 44°19' E 030°23'612.3
2017-Sep-20 07:27N 44°13' E 030°21'3412.2
2017-Sep-20 04:41N 43°40' E 030°08'512.1
2017-Sep-20 04:18N 43°36' E 030°06'512.1
2017-Sep-20 03:54N 43°31' E 030°04'2912.1
2017-Sep-20 01:32N 43°04' E 029°54'012.5
2017-Sep-20 01:30N 43°03' E 029°54'712.4
2017-Sep-20 00:54N 42°56' E 029°51'512.4
2017-Sep-20 00:31N 42°51' E 029°49'812.5
2017-Sep-19 23:55N 42°44' E 029°46'712.5
2017-Sep-19 23:22N 42°38' E 029°44'1412.3
2017-Sep-19 22:13N 42°24' E 029°38'312.1
2017-Sep-19 22:00N 42°22' E 029°37'1712.3
2017-Sep-19 20:38N 42°06' E 029°31'1512.5
2017-Sep-19 19:25N 41°51' E 029°25'612.4
2017-Sep-19 18:54N 41°45' E 029°23'1512.2
2017-Sep-19 17:43N 41°31' E 029°17'312.2
2017-Sep-19 17:30N 41°28' E 029°16'612.0
2017-Sep-19 17:00N 41°23' E 029°14'911.5
2017-Sep-19 16:13N 41°14' E 029°09'29 2.2
2017-Sep-19 02:59N 40°49' E 028°49'0 0.9
2017-Sep-19 02:29N 40°49' E 028°49'0 0.8
2017-Sep-19 01:59N 40°49' E 028°50'0 0.8
2017-Sep-19 01:23N 40°49' E 028°51'0 0.6
2017-Sep-19 00:53N 40°49' E 028°51'0 0.8
2017-Sep-19 00:17N 40°49' E 028°51'0 0.8
2017-Sep-18 23:57N 40°49' E 028°52'0 0.2
2017-Sep-18 22:15N 40°48' E 028°51'0 0.6
2017-Sep-18 21:57N 40°48' E 028°51'0 0.6
2017-Sep-18 21:30N 40°48' E 028°52'0 0.7
2017-Sep-18 21:00N 40°49' E 028°52'0 0.7
2017-Sep-18 20:21N 40°49' E 028°53'0 0.8
2017-Sep-18 19:57N 40°49' E 028°53'0 0.6
2017-Sep-18 19:30N 40°49' E 028°53'4 8.0
2017-Sep-18 19:01N 40°46' E 028°49'4 7.6
2017-Sep-18 18:30N 40°48' E 028°44'611.1
2017-Sep-18 18:00N 40°49' E 028°37'611.4
2017-Sep-18 17:31N 40°48' E 028°30'611.4
2017-Sep-18 17:00N 40°47' E 028°22'611.6
2017-Sep-18 16:31N 40°46' E 028°15'8711.4
2017-Sep-18 08:55N 40°13' E 026°29'510.6
2017-Sep-18 08:29N 40°12' E 026°23'11 9.0
2017-Sep-18 07:18N 40°03' E 026°16'16 9.8
2017-Sep-18 05:39N 39°56' E 025°57'1 9.6
2017-Sep-18 05:30N 39°55' E 025°56'6 3.6
2017-Sep-18 03:42N 39°49' E 025°52'1 5.8
2017-Sep-18 03:27N 39°48' E 025°52'511.1
2017-Sep-18 03:00N 39°43' E 025°49'611.9
2017-Sep-18 02:30N 39°38' E 025°45'3212.2
2017-Sep-17 23:55N 39°10' E 025°26'3812.3
2017-Sep-17 20:48N 38°36' E 025°04'612.1
2017-Sep-17 20:20N 38°31' E 025°01'412.3
2017-Sep-17 20:00N 38°27' E 024°58'612.2
2017-Sep-17 19:29N 38°22' E 024°55'1312.0
2017-Sep-17 18:24N 38°10' E 024°47'9011.5
2017-Sep-17 10:35N 36°47' E 024°05'311.6
2017-Sep-17 10:20N 36°44' E 024°03'411.8
2017-Sep-17 10:00N 36°41' E 024°01'611.9
2017-Sep-17 09:30N 36°35' E 023°58'612.0
2017-Sep-17 08:58N 36°29' E 023°54'512.0
2017-Sep-17 08:30N 36°24' E 023°51'611.9
2017-Sep-17 08:00N 36°19' E 023°48'611.7
2017-Sep-17 07:30N 36°14' E 023°45'611.6
2017-Sep-17 07:00N 36°09' E 023°41'612.0
2017-Sep-17 06:30N 36°03' E 023°38'612.4
2017-Sep-17 06:00N 35°58' E 023°35'612.7
2017-Sep-17 05:30N 35°52' E 023°31'612.4
2017-Sep-17 05:00N 35°47' E 023°28'1111.8
2017-Sep-17 04:04N 35°36' E 023°23'112.0
2017-Sep-17 04:00N 35°35' E 023°23'811.9
2017-Sep-17 03:18N 35°27' E 023°21'3011.2
2017-Sep-17 00:35N 34°57' E 023°27'311.4
2017-Sep-17 00:16N 34°54' E 023°29'311.5
2017-Sep-17 00:00N 34°51' E 023°30'611.2
2017-Sep-16 23:30N 34°46' E 023°32'510.7
2017-Sep-16 23:00N 34°40' E 023°34'810.9
2017-Sep-16 22:14N 34°33' E 023°37'311.4
2017-Sep-16 22:00N 34°30' E 023°38'611.4
2017-Sep-16 21:30N 34°25' E 023°41'611.4
2017-Sep-16 21:00N 34°19' E 023°43'611.1
2017-Sep-16 20:30N 34°14' E 023°45'711.3
2017-Sep-16 19:51N 34°07' E 023°48'511.3
2017-Sep-16 19:23N 34°02' E 023°50'511.1
2017-Sep-16 18:56N 33°57' E 023°52'511.1
2017-Sep-16 18:30N 33°53' E 023°54'1410.9
2017-Sep-16 17:14N 33°40' E 023°59'610.5
2017-Sep-16 16:37N 33°33' E 023°59'110.8
2017-Sep-16 16:29N 33°32' E 023°59'2410.7
2017-Sep-16 14:15N 33°08' E 024°02'  
Track history (hours):
 
Tides and Currents Weather Stations Pressure Air Temp Water Temp Dewpoint Dewpoint Depression Visibility Wind Speed Wind Dir Waves Ship Positions

Challenger Kasser

Last reported at 2017-Sep-21 07:00 UTC. Time now 2017-Sep-21 07:08 UTC.
Position N 46°29' E 030°52'.

; draft 5.9 m.

Type: Cargo ship. MMSI: 312099000.

Date/timePositionNaut miles runAvg speedWind from/ knotsBaromVisibWave heightAir tempDewpointWater temp
2017-Sep-21 07:00N 46°29' E 030°52'0 0.0
2017-Sep-21 06:30N 46°29' E 030°52'0 0.0
2017-Sep-21 06:00N 46°29' E 030°52'0 0.0
2017-Sep-21 05:30N 46°29' E 030°52'0 0.0
2017-Sep-21 05:00N 46°29' E 030°52'0 0.0
2017-Sep-21 04:30N 46°29' E 030°52'0 0.0
2017-Sep-21 04:00N 46°29' E 030°52'0 0.0
2017-Sep-21 03:27N 46°29' E 030°52'0 0.0
2017-Sep-21 03:00N 46°29' E 030°52'0 0.0
2017-Sep-21 02:30N 46°29' E 030°52'0 0.0
2017-Sep-21 02:00N 46°29' E 030°52'0 0.0
2017-Sep-21 01:30N 46°29' E 030°52'0 0.0
2017-Sep-21 01:00N 46°29' E 030°52'0 0.1
2017-Sep-21 00:30N 46°29' E 030°52'0 0.0
2017-Sep-21 00:00N 46°29' E 030°52'0 0.0
2017-Sep-20 23:30N 46°29' E 030°52'0 0.0
2017-Sep-20 23:00N 46°29' E 030°52'0 0.1
2017-Sep-20 22:27N 46°29' E 030°52'0 0.0
2017-Sep-20 22:00N 46°29' E 030°52'0 0.0
2017-Sep-20 21:30N 46°29' E 030°52'0 0.0
2017-Sep-20 21:00N 46°29' E 030°52'0 0.0
2017-Sep-20 20:30N 46°29' E 030°52'0 0.2
2017-Sep-20 19:57N 46°29' E 030°52'0 0.8
2017-Sep-20 19:30N 46°29' E 030°52'4 7.8
2017-Sep-20 19:00N 46°25' E 030°52'510.2
2017-Sep-20 18:30N 46°20' E 030°54'611.4
2017-Sep-20 18:00N 46°15' E 030°59'612.0
2017-Sep-20 17:30N 46°11' E 031°05'612.2
2017-Sep-20 17:00N 46°06' E 031°09'612.6
2017-Sep-20 16:30N 45°60' E 031°07'3612.3
2017-Sep-20 13:35N 45°25' E 030°51'112.3
2017-Sep-20 13:30N 45°24' E 030°51'1712.3
2017-Sep-20 12:06N 45°08' E 030°44'512.4
2017-Sep-20 11:41N 45°03' E 030°42'212.2
2017-Sep-20 11:30N 45°01' E 030°41'1212.4
2017-Sep-20 10:31N 44°49' E 030°36'1312.3
2017-Sep-20 09:26N 44°36' E 030°31'612.1
2017-Sep-20 08:57N 44°31' E 030°28'512.1
2017-Sep-20 08:29N 44°25' E 030°26'612.3
2017-Sep-20 07:58N 44°19' E 030°23'612.3
2017-Sep-20 07:27N 44°13' E 030°21'3412.2
2017-Sep-20 04:41N 43°40' E 030°08'512.1
2017-Sep-20 04:18N 43°36' E 030°06'512.1
2017-Sep-20 03:54N 43°31' E 030°04'2912.1
2017-Sep-20 01:32N 43°04' E 029°54'012.5
2017-Sep-20 01:30N 43°03' E 029°54'712.4
2017-Sep-20 00:54N 42°56' E 029°51'512.4
2017-Sep-20 00:31N 42°51' E 029°49'812.5
2017-Sep-19 23:55N 42°44' E 029°46'712.5
2017-Sep-19 23:22N 42°38' E 029°44'1412.3
2017-Sep-19 22:13N 42°24' E 029°38'312.1
2017-Sep-19 22:00N 42°22' E 029°37'1712.3
2017-Sep-19 20:38N 42°06' E 029°31'1512.5
2017-Sep-19 19:25N 41°51' E 029°25'612.4
2017-Sep-19 18:54N 41°45' E 029°23'1512.2
2017-Sep-19 17:43N 41°31' E 029°17'312.2
2017-Sep-19 17:30N 41°28' E 029°16'612.0
2017-Sep-19 17:00N 41°23' E 029°14'911.5
2017-Sep-19 16:13N 41°14' E 029°09'29 2.2
2017-Sep-19 02:59N 40°49' E 028°49'0 0.9
2017-Sep-19 02:29N 40°49' E 028°49'0 0.8
2017-Sep-19 01:59N 40°49' E 028°50'0 0.8
2017-Sep-19 01:23N 40°49' E 028°51'0 0.6
2017-Sep-19 00:53N 40°49' E 028°51'0 0.8
2017-Sep-19 00:17N 40°49' E 028°51'0 0.8
2017-Sep-18 23:57N 40°49' E 028°52'0 0.2
2017-Sep-18 22:15N 40°48' E 028°51'0 0.6
2017-Sep-18 21:57N 40°48' E 028°51'0 0.6
2017-Sep-18 21:30N 40°48' E 028°52'0 0.7
2017-Sep-18 21:00N 40°49' E 028°52'0 0.7
2017-Sep-18 20:21N 40°49' E 028°53'0 0.8
2017-Sep-18 19:57N 40°49' E 028°53'0 0.6
2017-Sep-18 19:30N 40°49' E 028°53'4 8.0
2017-Sep-18 19:01N 40°46' E 028°49'4 7.6
2017-Sep-18 18:30N 40°48' E 028°44'611.1
2017-Sep-18 18:00N 40°49' E 028°37'611.4
2017-Sep-18 17:31N 40°48' E 028°30'611.4
2017-Sep-18 17:00N 40°47' E 028°22'611.6
2017-Sep-18 16:31N 40°46' E 028°15'8711.4
2017-Sep-18 08:55N 40°13' E 026°29'510.6
2017-Sep-18 08:29N 40°12' E 026°23'11 9.0
2017-Sep-18 07:18N 40°03' E 026°16'16 9.8
2017-Sep-18 05:39N 39°56' E 025°57'1 9.6
2017-Sep-18 05:30N 39°55' E 025°56'6 3.6
2017-Sep-18 03:42N 39°49' E 025°52'1 5.8
2017-Sep-18 03:27N 39°48' E 025°52'511.1
2017-Sep-18 03:00N 39°43' E 025°49'611.9
2017-Sep-18 02:30N 39°38' E 025°45'3212.2
2017-Sep-17 23:55N 39°10' E 025°26'3812.3
2017-Sep-17 20:48N 38°36' E 025°04'612.1
2017-Sep-17 20:20N 38°31' E 025°01'412.3
2017-Sep-17 20:00N 38°27' E 024°58'612.2
2017-Sep-17 19:29N 38°22' E 024°55'1312.0
2017-Sep-17 18:24N 38°10' E 024°47'9011.5
2017-Sep-17 10:35N 36°47' E 024°05'311.6
2017-Sep-17 10:20N 36°44' E 024°03'411.8
2017-Sep-17 10:00N 36°41' E 024°01'611.9
2017-Sep-17 09:30N 36°35' E 023°58'612.0
2017-Sep-17 08:58N 36°29' E 023°54'512.0
2017-Sep-17 08:30N 36°24' E 023°51'611.9
2017-Sep-17 08:00N 36°19' E 023°48'611.7
2017-Sep-17 07:30N 36°14' E 023°45'611.6
2017-Sep-17 07:00N 36°09' E 023°41'612.0
2017-Sep-17 06:30N 36°03' E 023°38'612.4
2017-Sep-17 06:00N 35°58' E 023°35'612.7
2017-Sep-17 05:30N 35°52' E 023°31'612.4
2017-Sep-17 05:00N 35°47' E 023°28'1111.8
2017-Sep-17 04:04N 35°36' E 023°23'112.0
2017-Sep-17 04:00N 35°35' E 023°23'811.9
2017-Sep-17 03:18N 35°27' E 023°21'3011.2
2017-Sep-17 00:35N 34°57' E 023°27'311.4
2017-Sep-17 00:16N 34°54' E 023°29'311.5
2017-Sep-17 00:00N 34°51' E 023°30'611.2
2017-Sep-16 23:30N 34°46' E 023°32'510.7
2017-Sep-16 23:00N 34°40' E 023°34'810.9
2017-Sep-16 22:14N 34°33' E 023°37'311.4
2017-Sep-16 22:00N 34°30' E 023°38'611.4
2017-Sep-16 21:30N 34°25' E 023°41'611.4
2017-Sep-16 21:00N 34°19' E 023°43'611.1
2017-Sep-16 20:30N 34°14' E 023°45'711.3
2017-Sep-16 19:51N 34°07' E 023°48'511.3
2017-Sep-16 19:23N 34°02' E 023°50'511.1
2017-Sep-16 18:56N 33°57' E 023°52'511.1
2017-Sep-16 18:30N 33°53' E 023°54'1410.9
2017-Sep-16 17:14N 33°40' E 023°59'610.5
2017-Sep-16 16:37N 33°33' E 023°59'110.8
2017-Sep-16 16:29N 33°32' E 023°59'2410.7
2017-Sep-16 14:15N 33°08' E 024°02'  

Dump ship's entire track history